Time;durP1;ratioP1;P1;durP2;ratioP2;P2;SDS_P1;SDS_P2;PMS_P1;PMS_P2;Temp;Humidity;BMP_temperature;BMP_pressure;BME280_temperature;BME280_humidity;BME280_pressure;Samples;Min_cycle;Max_cycle;Signal;HPM_P1;HPM_P2
2023/07/16 00:00:22;;;;;;;7.90;7.10;;;;;;;22.66;67.40;98647.12;135643;1275;22552;-81
2023/07/16 00:03:44;;;;;;;8.00;6.60;;;;;;;22.64;67.68;98639.84;135657;1275;22516;-81
2023/07/16 00:06:47;;;;;;;9.10;7.10;;;;;;;22.66;67.70;98640.91;135621;1275;22534;-81
2023/07/16 00:09:49;;;;;;;11.00;7.70;;;;;;;22.64;67.74;98639.06;135617;1275;23295;-81
2023/07/16 00:12:52;;;;;;;9.00;7.70;;;;;;;22.64;67.89;98638.34;135629;1275;24346;-82
2023/07/16 00:15:54;;;;;;;15.20;7.60;;;;;;;22.63;68.22;98639.98;135692;1275;22530;-82
2023/07/16 00:18:56;;;;;;;9.20;7.90;;;;;;;22.58;68.37;98636.45;135773;1274;22537;-82
2023/07/16 00:21:59;;;;;;;9.30;7.90;;;;;;;22.56;68.48;98637.41;135760;1275;22530;-82
2023/07/16 00:25:02;;;;;;;10.60;7.60;;;;;;;22.54;68.55;98637.48;135757;1275;22557;-81
2023/07/16 00:28:05;;;;;;;10.50;7.70;;;;;;;22.54;68.57;98636.95;135695;1274;22640;-81
2023/07/16 00:31:07;;;;;;;11.00;8.10;;;;;;;22.51;68.66;98632.61;135632;1274;24167;-81
2023/07/16 00:34:10;;;;;;;8.40;7.20;;;;;;;22.49;68.63;98635.70;135626;1275;25278;-80
2023/07/16 00:37:12;;;;;;;12.60;8.00;;;;;;;22.48;68.70;98630.78;135574;1275;22539;-81
2023/07/16 00:40:15;;;;;;;10.70;8.20;;;;;;;22.46;68.83;98630.17;135617;1275;22542;-81
2023/07/16 00:43:17;;;;;;;8.40;7.50;;;;;;;22.39;69.19;98632.23;135595;1272;22541;-81
2023/07/16 00:46:19;;;;;;;11.40;7.60;;;;;;;22.36;69.50;98627.02;135552;1275;22640;-82
2023/07/16 00:49:22;;;;;;;15.00;8.40;;;;;;;22.34;69.64;98627.98;135555;1275;25930;-81
2023/07/16 00:52:24;;;;;;;12.20;8.10;;;;;;;22.33;69.77;98622.54;135556;1274;22556;-83
2023/07/16 00:55:27;;;;;;;8.70;7.80;;;;;;;22.31;69.75;98620.84;135675;1275;22541;-81
2023/07/16 00:58:29;;;;;;;10.30;8.30;;;;;;;22.29;70.01;98622.17;135666;1275;24282;-81
2023/07/16 01:01:32;;;;;;;12.40;7.80;;;;;;;22.24;69.98;98619.33;135725;1275;22538;-82
2023/07/16 01:04:34;;;;;;;11.40;8.10;;;;;;;22.18;70.42;98612.84;135679;1275;22644;-82
2023/07/16 01:07:37;;;;;;;11.70;8.20;;;;;;;22.13;70.67;98615.14;135661;1275;22550;-82
2023/07/16 01:10:39;;;;;;;8.90;8.00;;;;;;;22.10;70.98;98611.70;135721;1274;22541;-82
2023/07/16 01:13:41;;;;;;;10.30;8.00;;;;;;;22.09;70.91;98605.75;135741;1275;22541;-83
2023/07/16 01:16:44;;;;;;;9.30;8.10;;;;;;;22.05;71.33;98602.52;135713;1273;25782;-83
2023/07/16 01:19:46;;;;;;;9.40;8.50;;;;;;;22.01;71.49;98599.13;135714;1273;22565;-83
2023/07/16 01:22:49;;;;;;;9.50;8.60;;;;;;;21.98;71.95;98599.02;135678;1274;25239;-83
2023/07/16 01:25:51;;;;;;;9.10;8.20;;;;;;;22.04;72.05;98610.02;135714;1274;24880;-83
2023/07/16 01:28:55;;;;;;;10.50;8.30;;;;;;;21.96;72.43;98601.94;135718;1273;22633;-83
2023/07/16 01:31:57;;;;;;;10.80;8.20;;;;;;;21.90;72.66;98596.48;135744;1273;22517;-82
2023/07/16 01:34:59;;;;;;;12.40;9.70;;;;;;;21.83;73.25;98600.31;135749;1273;22636;-81
2023/07/16 01:38:02;;;;;;;10.00;8.60;;;;;;;21.83;73.45;98596.78;135753;1274;22518;-82
2023/07/16 01:41:04;;;;;;;10.70;8.50;;;;;;;21.79;73.94;98597.63;135731;1273;22495;-83
2023/07/16 01:44:07;;;;;;;9.50;8.60;;;;;;;21.85;73.93;98593.51;135641;1271;22541;-81
2023/07/16 01:47:09;;;;;;;10.10;9.10;;;;;;;21.81;74.32;98590.27;135650;1273;24199;-82
2023/07/16 01:50:12;;;;;;;9.70;8.90;;;;;;;21.80;74.35;98589.27;135729;1274;22592;-83
2023/07/16 01:53:14;;;;;;;9.60;8.70;;;;;;;21.78;74.63;98592.73;135710;1273;22525;-83
2023/07/16 01:56:17;;;;;;;10.60;9.40;;;;;;;21.79;74.78;98599.58;135708;1273;22577;-80
2023/07/16 01:59:19;;;;;;;11.10;9.30;;;;;;;21.79;74.64;98601.52;135654;1273;22585;-81
2023/07/16 02:02:21;;;;;;;10.60;8.70;;;;;;;21.79;74.77;98600.31;135640;1273;22476;-81
2023/07/16 02:05:24;;;;;;;11.30;8.70;;;;;;;21.76;74.70;98594.74;135622;1273;22566;-81
2023/07/16 02:08:26;;;;;;;10.30;9.20;;;;;;;21.76;75.09;98590.31;135638;1274;25217;-81
2023/07/16 02:11:29;;;;;;;12.80;8.30;;;;;;;21.77;75.11;98589.39;135740;1273;22542;-81
2023/07/16 02:14:31;;;;;;;12.80;9.80;;;;;;;21.74;75.37;98593.59;135612;1252;22545;-80
2023/07/16 02:17:34;;;;;;;12.30;9.20;;;;;;;21.74;75.20;98596.23;135577;1275;22545;-81
2023/07/16 02:20:36;;;;;;;10.90;9.40;;;;;;;21.71;75.40;98589.24;135541;1275;22528;-81
2023/07/16 02:23:38;;;;;;;10.40;9.00;;;;;;;21.68;75.85;98587.94;135577;1275;24905;-81
2023/07/16 02:26:41;;;;;;;12.10;9.60;;;;;;;21.67;75.85;98591.53;135571;1275;22602;-81
2023/07/16 02:29:44;;;;;;;11.10;9.70;;;;;;;21.66;76.07;98585.88;135612;1275;22630;-81
2023/07/16 02:32:46;;;;;;;11.50;9.00;;;;;;;21.60;76.14;98582.71;135583;1275;24301;-84
2023/07/16 02:35:48;;;;;;;12.60;9.90;;;;;;;21.53;76.66;98579.95;135621;1275;23441;-82
2023/07/16 02:38:51;;;;;;;10.60;9.50;;;;;;;21.54;76.89;98582.77;135675;1272;24195;-83
2023/07/16 02:41:53;;;;;;;10.30;9.30;;;;;;;21.55;76.67;98581.48;135612;1275;22559;-82
2023/07/16 02:44:56;;;;;;;15.60;9.50;;;;;;;21.56;77.16;98583.38;135561;1276;23637;-82
2023/07/16 02:47:58;;;;;;;16.20;10.00;;;;;;;21.58;77.23;98592.70;135578;1275;23283;-81
2023/07/16 02:51:01;;;;;;;16.00;9.40;;;;;;;21.61;77.23;98592.75;135591;1276;23841;-82
2023/07/16 02:54:03;;;;;;;11.80;9.60;;;;;;;21.60;77.49;98590.88;135562;1276;24288;-82
2023/07/16 02:57:05;;;;;;;11.40;9.80;;;;;;;21.67;77.56;98585.68;135637;1276;22543;-84
2023/07/16 03:00:08;;;;;;;12.10;10.00;;;;;;;21.66;77.42;98585.34;135527;1276;22634;-82
2023/07/16 03:03:10;;;;;;;10.10;9.10;;;;;;;21.60;77.87;98587.85;135583;1276;22596;-81
2023/07/16 03:06:13;;;;;;;13.10;10.30;;;;;;;21.59;77.82;98581.67;135546;1276;25419;-81
2023/07/16 03:09:15;;;;;;;10.90;9.70;;;;;;;21.55;78.15;98580.77;135530;1276;22536;-81
2023/07/16 03:12:18;;;;;;;12.40;9.90;;;;;;;21.56;78.15;98584.11;135531;1275;25743;-83
2023/07/16 03:15:20;;;;;;;10.70;9.70;;;;;;;21.64;77.62;98588.06;135594;1275;22554;-84
2023/07/16 03:18:23;;;;;;;12.60;9.80;;;;;;;21.69;77.76;98596.94;135661;1274;22545;-82
2023/07/16 03:21:25;;;;;;;10.30;9.30;;;;;;;21.69;77.26;98602.25;135703;1275;22541;-81
2023/07/16 03:24:27;;;;;;;11.60;10.30;;;;;;;21.62;77.42;98604.60;135710;1275;22533;-82
2023/07/16 03:27:30;;;;;;;12.80;9.20;;;;;;;21.68;77.85;98607.58;135732;1274;22842;-81
2023/07/16 03:30:32;;;;;;;11.70;10.30;;;;;;;21.79;77.37;98610.02;135747;1275;22534;-83
2023/07/16 03:33:35;;;;;;;12.30;9.80;;;;;;;21.77;76.68;98612.40;135723;1253;22565;-82
2023/07/16 03:36:37;;;;;;;13.90;9.70;;;;;;;21.78;77.00;98613.06;135698;1274;22590;-82
2023/07/16 03:39:40;;;;;;;12.20;9.70;;;;;;;21.87;76.68;98609.57;135734;1275;25275;-82
2023/07/16 03:42:42;;;;;;;19.80;10.20;;;;;;;21.93;76.47;98610.02;135732;1275;22518;-82
2023/07/16 03:45:45;;;;;;;16.70;10.10;;;;;;;21.93;76.40;98608.09;135714;1274;24382;-82
2023/07/16 03:48:47;;;;;;;14.00;10.20;;;;;;;21.87;76.26;98609.20;135769;1275;24278;-81
2023/07/16 03:51:50;;;;;;;12.20;10.10;;;;;;;21.91;76.56;98604.42;135717;1275;22480;-84
2023/07/16 03:54:52;;;;;;;13.10;9.90;;;;;;;21.91;76.26;98602.52;135783;1274;22530;-82
2023/07/16 03:57:54;;;;;;;13.20;10.00;;;;;;;21.87;76.52;98605.47;135691;1275;22569;-82
2023/07/16 04:00:57;;;;;;;11.80;9.50;;;;;;;21.95;76.48;98603.39;135893;1274;22542;-82
2023/07/16 04:03:59;;;;;;;11.10;9.90;;;;;;;22.00;76.42;98601.27;136402;1275;22572;-82
2023/07/16 04:07:02;;;;;;;11.50;10.30;;;;;;;22.02;76.18;98602.09;136413;1274;22481;-80
2023/07/16 04:10:04;;;;;;;10.70;9.70;;;;;;;22.05;75.96;98600.56;136054;1274;22527;-80
2023/07/16 04:13:07;;;;;;;11.10;10.10;;;;;;;22.12;75.90;98602.77;135806;1274;22530;-81
2023/07/16 04:16:09;;;;;;;11.90;9.70;;;;;;;22.19;75.71;98605.33;135729;1275;22535;-82
2023/07/16 04:19:11;;;;;;;10.40;9.40;;;;;;;22.37;75.43;98606.41;135642;1275;22608;-83
2023/07/16 04:22:14;;;;;;;10.90;9.50;;;;;;;22.58;74.87;98605.60;135649;1275;22540;-83
2023/07/16 04:25:16;;;;;;;20.10;9.40;;;;;;;22.74;74.08;98609.55;135713;1274;22538;-81
2023/07/16 04:28:19;;;;;;;12.00;9.10;;;;;;;22.90;73.75;98607.50;135680;1275;22655;-81
2023/07/16 04:31:21;;;;;;;12.00;8.30;;;;;;;23.09;73.06;98607.06;135454;1274;23305;-80
2023/07/16 04:34:24;;;;;;;17.00;9.00;;;;;;;23.31;72.43;98614.43;135790;1275;22535;-81
2023/07/16 04:37:26;;;;;;;9.40;8.30;;;;;;;23.53;71.62;98616.90;135430;1274;22573;-81
2023/07/16 04:40:28;;;;;;;9.60;8.70;;;;;;;23.68;70.65;98617.85;135451;1274;22679;-81
2023/07/16 04:43:31;;;;;;;11.00;9.10;;;;;;;23.78;70.26;98618.80;135856;1274;22551;-81
2023/07/16 04:46:33;;;;;;;11.80;8.60;;;;;;;23.91;69.96;98625.84;136062;1274;22558;-81
2023/07/16 04:49:36;;;;;;;11.60;8.40;;;;;;;24.14;69.31;98621.25;135714;1275;22584;-81
2023/07/16 04:52:38;;;;;;;11.90;9.40;;;;;;;24.27;68.49;98616.59;135663;1275;22533;-80
2023/07/16 04:55:41;;;;;;;10.50;8.10;;;;;;;24.35;68.17;98619.23;135581;1275;22537;-81
2023/07/16 04:58:43;;;;;;;10.60;7.60;;;;;;;24.47;67.83;98623.13;135727;1274;22534;-82
2023/07/16 05:01:46;;;;;;;17.60;9.60;;;;;;;24.56;67.54;98622.89;135735;1275;22538;-80
2023/07/16 05:04:48;;;;;;;13.40;9.40;;;;;;;24.52;67.23;98631.62;135712;1275;22585;-80
2023/07/16 05:07:51;;;;;;;16.40;10.20;;;;;;;24.53;67.58;98637.05;135744;1275;22541;-81
2023/07/16 05:10:53;;;;;;;10.20;9.00;;;;;;;24.73;68.20;98638.56;135853;1275;24174;-81
2023/07/16 05:13:57;;;;;;;;;;;;;;;24.88;68.44;98644.98;135700;1275;24168;-79
2023/07/16 05:16:59;;;;;;;10.90;8.70;;;;;;;24.98;68.48;98646.77;135652;1275;22580;-78
2023/07/16 05:20:02;;;;;;;14.10;9.00;;;;;;;25.15;68.36;98650.60;135526;1275;22666;-79
2023/07/16 05:23:05;;;;;;;10.20;8.20;;;;;;;25.29;68.05;98650.59;135555;1275;22537;-78
2023/07/16 05:26:07;;;;;;;11.30;8.10;;;;;;;25.37;66.06;98655.52;135581;1275;22553;-78
2023/07/16 05:29:10;;;;;;;11.90;8.20;;;;;;;25.47;65.51;98662.89;135608;1275;22531;-78
2023/07/16 05:32:12;;;;;;;9.00;8.00;;;;;;;25.63;65.12;98664.02;135570;1274;22641;-79
2023/07/16 05:35:15;;;;;;;8.90;8.10;;;;;;;25.70;64.71;98664.52;135630;1274;24247;-79
2023/07/16 05:38:17;;;;;;;8.20;7.50;;;;;;;25.79;64.48;98664.78;135601;1274;22669;-79
2023/07/16 05:41:19;;;;;;;8.10;7.10;;;;;;;25.93;64.28;98662.06;135521;1275;24170;-80
2023/07/16 05:44:22;;;;;;;8.40;7.70;;;;;;;26.08;63.70;98662.58;135589;1274;25401;-79
2023/07/16 05:47:24;;;;;;;10.50;9.50;;;;;;;26.22;63.11;98661.09;135616;1275;22611;-78
2023/07/16 05:50:29;;;;;;;9.10;8.20;;;;;;;26.36;63.13;98654.64;135548;1274;22558;-80
2023/07/16 05:53:31;;;;;;;8.50;7.70;;;;;;;26.48;62.60;98662.87;135580;1275;22635;-78
2023/07/16 05:56:34;;;;;;;9.00;7.40;;;;;;;26.62;62.57;98668.84;135551;1274;24261;-80
2023/07/16 05:59:37;;;;;;;8.30;7.30;;;;;;;26.79;62.43;98670.78;135617;1274;25420;-78
2023/07/16 06:02:39;;;;;;;10.30;7.30;;;;;;;26.94;61.87;98673.30;135601;1274;25274;-78
2023/07/16 06:05:42;;;;;;;12.10;7.90;;;;;;;27.03;61.29;98676.77;135643;1274;22526;-79
2023/07/16 06:08:44;;;;;;;8.50;6.90;;;;;;;27.23;61.44;98683.44;135655;1275;24266;-79
2023/07/16 06:11:47;;;;;;;7.50;6.90;;;;;;;27.44;60.46;98683.98;135626;1275;22530;-79
2023/07/16 06:14:49;;;;;;;8.10;7.20;;;;;;;27.62;59.99;98685.45;135567;1274;23248;-78
2023/07/16 06:17:51;;;;;;;12.20;6.60;;;;;;;27.78;59.29;98684.48;135551;1275;22710;-79
2023/07/16 06:20:56;;;;;;;22.30;19.10;;;;;;;27.95;58.53;98690.81;135547;1275;25945;-78
2023/07/16 06:23:58;;;;;;;9.40;7.10;;;;;;;28.18;57.61;98692.63;135589;1274;25917;-78
2023/07/16 06:27:01;;;;;;;7.60;6.90;;;;;;;28.39;56.62;98692.39;135564;1275;22579;-77
2023/07/16 06:30:05;;;;;;;7.80;5.80;;;;;;;28.59;55.80;98695.05;135562;1274;21775;-78
2023/07/16 06:33:10;;;;;;;8.10;6.30;;;;;;;28.74;55.18;98706.45;135599;1275;25408;-78
2023/07/16 06:36:13;;;;;;;7.50;6.20;;;;;;;28.87;55.10;98715.52;135601;1274;22548;-78
2023/07/16 06:39:15;;;;;;;7.10;6.40;;;;;;;29.03;54.97;98726.79;135561;1275;25891;-79
2023/07/16 06:42:17;;;;;;;5.80;5.20;;;;;;;29.24;54.69;98741.89;135542;1258;22587;-78
2023/07/16 06:45:20;;;;;;;7.10;6.10;;;;;;;29.42;53.77;98751.45;135592;1275;22900;-78
2023/07/16 06:48:22;;;;;;;7.70;5.80;;;;;;;29.58;53.04;98762.80;135576;1275;23391;-78
2023/07/16 06:51:25;;;;;;;6.30;5.40;;;;;;;29.66;51.68;98770.16;135554;1274;22535;-78
2023/07/16 06:54:27;;;;;;;8.20;5.50;;;;;;;29.59;51.76;98772.58;135565;1274;22497;-79
2023/07/16 06:57:30;;;;;;;6.20;5.60;;;;;;;29.67;51.71;98761.68;135568;1275;22541;-80
2023/07/16 07:00:32;;;;;;;6.40;5.80;;;;;;;29.73;51.78;98756.39;135667;1275;22651;-80
2023/07/16 07:03:35;;;;;;;8.50;5.70;;;;;;;29.94;51.10;98740.11;135823;1275;24170;-79
2023/07/16 07:06:37;;;;;;;8.10;5.90;;;;;;;30.15;49.98;98738.09;135703;1274;22553;-78
2023/07/16 07:09:40;;;;;;;6.70;5.70;;;;;;;30.27;49.39;98740.17;135717;1274;22525;-78
2023/07/16 07:12:42;;;;;;;5.90;5.40;;;;;;;30.51;48.74;98745.08;135740;1275;24189;-79
2023/07/16 07:15:47;;;;;;;7.70;5.50;;;;;;;30.73;48.06;98742.11;135768;1275;22548;-78
2023/07/16 07:18:49;;;;;;;6.90;5.40;;;;;;;30.95;47.59;98735.98;135697;1275;22555;-79
2023/07/16 07:21:52;;;;;;;7.80;5.30;;;;;;;31.15;46.65;98734.95;135672;1275;22542;-78
2023/07/16 07:24:54;;;;;;;6.40;5.80;;;;;;;31.32;46.09;98742.14;135679;1275;22533;-80
2023/07/16 07:27:57;;;;;;;5.40;4.90;;;;;;;31.40;45.44;98735.98;135691;1275;22545;-81
2023/07/16 07:30:59;;;;;;;5.40;5.00;;;;;;;31.53;45.11;98736.60;135706;1275;22534;-79
2023/07/16 07:34:02;;;;;;;5.80;5.20;;;;;;;31.72;44.83;98735.34;135689;1275;22650;-80
2023/07/16 07:37:05;;;;;;;5.30;4.80;;;;;;;31.89;44.52;98735.66;135782;1275;22541;-79
2023/07/16 07:40:08;;;;;;;7.00;5.20;;;;;;;32.17;44.29;98734.43;135689;1274;23256;-79
2023/07/16 07:43:10;;;;;;;5.80;5.20;;;;;;;32.25;43.18;98735.75;135698;1274;22549;-79
2023/07/16 07:46:13;;;;;;;6.60;5.70;;;;;;;32.38;42.99;98734.24;135666;1275;22547;-81
2023/07/16 07:49:15;;;;;;;5.30;4.80;;;;;;;32.53;42.76;98736.41;135730;1275;22538;-81
2023/07/16 07:52:17;;;;;;;5.80;5.20;;;;;;;32.60;42.41;98734.62;135641;1275;22598;-81
2023/07/16 07:55:20;;;;;;;7.30;5.40;;;;;;;32.60;41.50;98741.45;135673;1275;22543;-82
2023/07/16 07:58:22;;;;;;;10.60;5.20;;;;;;;32.50;41.57;98737.90;135657;1275;22530;-80
2023/07/16 08:01:25;;;;;;;6.50;5.20;;;;;;;32.45;42.15;98739.06;135663;1274;24279;-81
2023/07/16 08:04:27;;;;;;;8.30;6.90;;;;;;;32.62;42.45;98739.99;135680;1275;22609;-80
2023/07/16 08:07:30;;;;;;;7.90;5.80;;;;;;;32.66;41.41;98742.02;135687;1275;22574;-80
2023/07/16 08:10:32;;;;;;;6.70;5.70;;;;;;;32.65;41.89;98740.00;135596;1275;22553;-80
2023/07/16 08:13:35;;;;;;;6.80;5.40;;;;;;;32.63;41.91;98735.83;135649;1275;24228;-81
2023/07/16 08:16:39;;;;;;;6.80;6.10;;;;;;;32.56;41.96;98742.50;135646;1274;23401;-81
2023/07/16 08:19:42;;;;;;;11.00;6.80;;;;;;;32.53;42.17;98745.25;135645;1275;22545;-80
2023/07/16 08:22:44;;;;;;;26.10;6.90;;;;;;;32.45;42.28;98747.58;135659;1274;23281;-81
2023/07/16 08:25:47;;;;;;;9.60;6.40;;;;;;;32.54;42.38;98745.70;135627;1274;22640;-79
2023/07/16 08:28:49;;;;;;;11.00;6.80;;;;;;;32.64;42.55;98744.05;135575;1274;24179;-81
2023/07/16 08:31:52;;;;;;;8.90;6.10;;;;;;;32.53;41.93;98746.52;135667;1275;22568;-80
2023/07/16 08:34:54;;;;;;;8.60;7.00;;;;;;;32.35;42.73;98750.52;135550;1274;23390;-80
2023/07/16 08:37:57;;;;;;;9.90;6.60;;;;;;;32.60;42.58;98750.31;135574;1260;25281;-79
2023/07/16 08:40:59;;;;;;;8.50;7.00;;;;;;;32.61;42.30;98752.92;135611;1274;22548;-79
2023/07/16 08:44:02;;;;;;;7.00;6.40;;;;;;;32.54;42.33;98745.55;135518;1275;24172;-79
2023/07/16 08:47:04;;;;;;;13.60;7.90;;;;;;;32.59;42.67;98750.16;135541;1274;22563;-80
2023/07/16 08:50:07;;;;;;;9.40;5.90;;;;;;;32.65;43.38;98750.07;135607;1274;22532;-80
2023/07/16 08:53:09;;;;;;;11.60;6.20;;;;;;;32.70;42.94;98755.42;135666;1274;25227;-80
2023/07/16 08:56:12;;;;;;;10.20;6.00;;;;;;;32.59;43.63;98753.78;135624;1275;22571;-81
2023/07/16 08:59:14;;;;;;;8.80;6.50;;;;;;;32.71;43.86;98754.05;135688;1274;22640;-81
2023/07/16 09:02:16;;;;;;;6.80;6.10;;;;;;;32.86;43.01;98754.89;135608;1275;22528;-82
2023/07/16 09:05:19;;;;;;;17.10;6.70;;;;;;;32.83;43.17;98755.67;135703;1275;22639;-81
2023/07/16 09:08:28;;;;;;;8.50;5.80;;;;;;;32.85;42.53;98758.71;135678;1275;22550;-80
2023/07/16 09:11:30;;;;;;;8.90;6.20;;;;;;;32.78;42.99;98748.16;135651;1274;22534;-80
2023/07/16 09:14:33;;;;;;;10.20;6.60;;;;;;;32.84;42.90;98744.56;135679;1274;22535;-81
2023/07/16 09:17:37;;;;;;;8.50;6.20;;;;;;;32.89;43.52;98750.33;135719;1275;23435;-81
2023/07/16 09:20:40;;;;;;;7.10;6.00;;;;;;;33.00;43.22;98749.11;135620;1274;22595;-80
2023/07/16 09:23:48;;;;;;;7.20;5.40;;;;;;;33.08;42.76;98741.02;135708;1274;23000;-79
2023/07/16 09:26:50;;;;;;;10.00;5.70;;;;;;;33.20;42.14;98743.64;135555;1275;25297;-80
2023/07/16 09:29:53;;;;;;;6.40;5.80;;;;;;;33.03;41.98;98739.48;135764;1274;22521;-81
2023/07/16 09:32:55;;;;;;;6.20;5.70;;;;;;;32.95;42.46;98740.10;135667;1275;24170;-81
2023/07/16 09:36:02;;;;;;;7.60;6.10;;;;;;;33.05;42.54;98742.77;135698;1275;24241;-80
2023/07/16 09:39:05;;;;;;;7.50;6.10;;;;;;;33.22;42.35;98742.04;135673;1274;22589;-80
2023/07/16 09:42:10;;;;;;;9.10;5.30;;;;;;;33.49;42.09;98742.66;135710;1274;22615;-80
2023/07/16 09:45:12;;;;;;;9.70;5.60;;;;;;;33.33;41.76;98751.42;135695;1275;22582;-80
2023/07/16 09:48:15;;;;;;;10.40;6.20;;;;;;;33.29;41.26;98748.70;135735;1275;24211;-80
2023/07/16 09:51:17;;;;;;;;;;;;;;;33.27;41.10;98746.86;135732;1274;25399;-80
2023/07/16 09:54:23;;;;;;;7.20;6.10;;;;;;;33.37;41.22;98739.90;135774;1275;22551;-80
2023/07/16 09:57:25;;;;;;;14.10;6.40;;;;;;;33.53;40.86;98735.46;135795;1274;22543;-79
2023/07/16 10:00:28;;;;;;;;;;;;;;;33.34;41.47;98737.09;135666;1274;22508;-79
2023/07/16 10:03:30;;;;;;;7.70;6.90;;;;;;;32.91;41.85;98741.13;135693;1274;22534;-79
2023/07/16 10:06:33;;;;;;;8.20;5.60;;;;;;;32.73;41.85;98743.46;135760;1274;22552;-80
2023/07/16 10:09:35;;;;;;;6.50;5.70;;;;;;;33.06;41.81;98738.68;135710;1274;22591;-79
2023/07/16 10:12:38;;;;;;;6.10;5.60;;;;;;;33.22;41.41;98742.40;135578;1274;23399;-80
2023/07/16 10:15:40;;;;;;;6.50;5.80;;;;;;;33.06;42.14;98742.27;135689;1274;22556;-80
2023/07/16 10:18:43;;;;;;;6.10;5.30;;;;;;;32.90;41.55;98743.21;135598;1274;22539;-80
2023/07/16 10:21:46;;;;;;;10.90;5.70;;;;;;;32.82;41.86;98739.67;135581;1274;22560;-80
2023/07/16 10:24:49;;;;;;;6.80;6.10;;;;;;;33.05;41.40;98733.35;135742;1251;22461;-80
2023/07/16 10:27:51;;;;;;;11.40;5.30;;;;;;;33.40;41.13;98740.39;135856;1267;22556;-79
2023/07/16 10:30:54;;;;;;;6.70;5.30;;;;;;;33.96;40.15;98741.95;136148;1274;22560;-79
2023/07/16 10:33:56;;;;;;;9.70;5.50;;;;;;;34.36;39.35;98736.54;136117;1274;22631;-79
2023/07/16 10:36:59;;;;;;;6.00;5.40;;;;;;;34.61;38.92;98738.15;136139;1274;22540;-79
2023/07/16 10:40:03;;;;;;;;;;;;;;;34.47;38.00;98742.65;136186;1274;22540;-79
2023/07/16 10:43:05;;;;;;;10.20;5.20;;;;;;;34.34;37.84;98742.86;135864;1274;23186;-80
2023/07/16 10:46:08;;;;;;;;;;;;;;;34.25;37.37;98744.88;135805;1267;22543;-80
2023/07/16 10:49:10;;;;;;;5.50;5.00;;;;;;;34.07;38.26;98741.92;135952;1274;22534;-80
2023/07/16 10:52:16;;;;;;;8.20;4.70;;;;;;;34.27;38.35;98741.52;136092;1274;22716;-79
2023/07/16 10:55:18;;;;;;;6.40;5.20;;;;;;;34.25;38.08;98742.59;135950;1274;22549;-80
2023/07/16 10:58:22;;;;;;;;;;;;;;;33.80;38.55;98745.09;135756;1275;23084;-81
2023/07/16 11:01:24;;;;;;;7.60;5.50;;;;;;;33.48;39.53;98745.48;135738;1274;22545;-79
2023/07/16 11:04:27;;;;;;;7.90;5.20;;;;;;;33.43;39.54;98748.02;135763;1274;22544;-81
2023/07/16 11:07:29;;;;;;;9.10;5.20;;;;;;;33.03;39.79;98752.11;135686;1272;22650;-80
2023/07/16 11:10:32;;;;;;;;;;;;;;;32.77;40.92;98755.02;135540;1274;22561;-79
2023/07/16 11:13:35;;;;;;;5.00;4.40;;;;;;;33.01;41.11;98754.59;135425;1274;24982;-79
2023/07/16 11:16:37;;;;;;;;;;;;;;;33.11;40.03;98755.17;135517;1273;22558;-79
2023/07/16 11:19:40;;;;;;;6.20;4.20;;;;;;;33.43;39.49;98752.02;135364;1274;23426;-79
2023/07/16 11:22:43;;;;;;;6.70;4.50;;;;;;;33.69;38.36;98754.95;135427;1274;22547;-80
2023/07/16 11:25:46;;;;;;;8.10;4.30;;;;;;;33.71;37.84;98757.23;135413;1275;22924;-79
2023/07/16 11:28:48;;;;;;;4.60;4.20;;;;;;;33.47;37.72;98764.48;135604;1274;24176;-79
2023/07/16 11:31:51;;;;;;;5.20;4.20;;;;;;;33.18;38.09;98766.19;135390;1274;245144;-79
2023/07/16 11:34:53;;;;;;;4.20;3.90;;;;;;;32.87;38.63;98766.52;135572;1274;22492;-81
2023/07/16 11:37:56;;;;;;;;;;;;;;;32.76;39.36;98761.28;135575;1268;22519;-79
2023/07/16 11:40:58;;;;;;;5.10;4.60;;;;;;;32.99;38.97;98765.41;135545;1274;24228;-79
2023/07/16 11:44:02;;;;;;;8.70;4.10;;;;;;;33.25;38.02;98760.38;135570;1274;24410;-79
2023/07/16 11:47:04;;;;;;;6.20;4.00;;;;;;;33.54;37.78;98752.70;135527;1274;25563;-80
2023/07/16 11:50:06;;;;;;;9.00;4.10;;;;;;;33.87;37.18;98754.54;135584;1275;22614;-79
2023/07/16 11:53:09;;;;;;;4.30;3.90;;;;;;;34.05;36.70;98757.06;135599;1263;22536;-79
2023/07/16 11:56:11;;;;;;;6.30;3.50;;;;;;;34.15;36.47;98752.99;135556;1275;22542;-80
2023/07/16 11:59:14;;;;;;;4.70;4.00;;;;;;;34.33;36.76;98751.29;135702;1275;22598;-80
2023/07/16 12:02:16;;;;;;;4.70;3.70;;;;;;;34.59;36.55;98750.79;135594;1274;22570;-82
2023/07/16 12:05:19;;;;;;;5.30;3.70;;;;;;;34.80;35.28;98753.63;135627;1274;25000;-80
2023/07/16 12:08:22;;;;;;;5.30;4.00;;;;;;;34.83;34.44;98750.69;135511;1272;22555;-79
2023/07/16 12:11:25;;;;;;;4.10;3.30;;;;;;;34.62;33.87;98746.90;135540;1275;22580;-81
2023/07/16 12:14:27;;;;;;;4.60;3.80;;;;;;;34.46;33.53;98737.63;135598;1274;22531;-80
2023/07/16 12:17:30;;;;;;;5.20;3.40;;;;;;;34.28;33.35;98740.31;135619;1274;22644;-80
2023/07/16 12:20:32;;;;;;;3.80;3.00;;;;;;;34.26;34.21;98740.80;135551;1274;22622;-80
2023/07/16 12:23:35;;;;;;;3.40;3.10;;;;;;;34.38;34.06;98739.23;135557;1274;22540;-79
2023/07/16 12:26:37;;;;;;;6.20;3.10;;;;;;;34.50;33.32;98734.38;135599;1274;22558;-80
2023/07/16 12:29:40;;;;;;;3.50;3.20;;;;;;;34.43;33.14;98731.80;135663;1274;22549;-80
2023/07/16 12:32:42;;;;;;;3.80;3.00;;;;;;;34.40;33.30;98727.39;135491;1274;24157;-80
2023/07/16 12:35:45;;;;;;;5.50;3.40;;;;;;;34.45;33.25;98722.77;135712;1274;22543;-81
2023/07/16 12:38:47;;;;;;;8.50;3.40;;;;;;;34.54;33.13;98716.90;135696;1274;22542;-81
2023/07/16 12:41:50;;;;;;;3.90;3.20;;;;;;;34.55;33.28;98715.76;135680;1272;22543;-79
2023/07/16 12:44:52;;;;;;;3.90;3.20;;;;;;;34.65;33.19;98715.77;135720;1274;22713;-81
2023/07/16 12:47:55;;;;;;;5.70;3.30;;;;;;;34.68;33.16;98719.80;135661;1274;22540;-79
2023/07/16 12:50:57;;;;;;;5.20;4.80;;;;;;;34.64;32.79;98721.63;135625;1274;22538;-80
2023/07/16 12:54:00;;;;;;;5.50;3.60;;;;;;;34.71;32.78;98716.65;135749;1274;22541;-81
2023/07/16 12:57:04;;;;;;;5.30;3.30;;;;;;;34.87;32.34;98711.63;135842;1274;23384;-81
2023/07/16 13:00:09;;;;;;;4.50;3.10;;;;;;;35.02;32.26;98713.50;135768;1274;22540;-81
2023/07/16 13:03:16;;;;;;;4.10;3.60;;;;;;;35.22;32.20;98709.14;135776;1267;22553;-81
2023/07/16 13:06:18;;;;;;;4.80;3.10;;;;;;;35.31;31.88;98707.21;135741;1274;22534;-81
2023/07/16 13:09:22;;;;;;;6.00;3.40;;;;;;;35.36;31.83;98708.45;135755;1274;22563;-81
2023/07/16 13:12:25;;;;;;;5.60;3.30;;;;;;;35.45;31.65;98699.31;135823;1274;22539;-81
2023/07/16 13:15:28;;;;;;;4.10;3.30;;;;;;;35.61;31.70;98700.34;135851;1274;22538;-80
2023/07/16 13:18:30;;;;;;;5.00;3.10;;;;;;;35.76;31.29;98705.42;135677;1265;22518;-81
2023/07/16 13:21:33;;;;;;;;;;;;;;;35.83;31.30;98706.85;135793;1274;25910;-81
2023/07/16 13:24:35;;;;;;;4.50;3.00;;;;;;;35.86;30.87;98704.33;135804;1274;25423;-81
2023/07/16 13:27:38;;;;;;;3.60;3.30;;;;;;;35.86;30.42;98710.50;135745;1269;22586;-81
2023/07/16 13:30:40;;;;;;;5.40;3.40;;;;;;;35.67;30.70;98710.45;135813;1274;22505;-80
2023/07/16 13:33:43;;;;;;;;;;;;;;;35.76;31.19;98711.95;135779;1275;22527;-81
2023/07/16 13:36:45;;;;;;;5.60;3.40;;;;;;;35.97;31.28;98713.83;135731;1274;22533;-80
2023/07/16 13:39:48;;;;;;;;;;;;;;;36.17;30.72;98711.02;135846;1274;22504;-81
2023/07/16 13:42:50;;;;;;;6.60;3.20;;;;;;;36.11;30.36;98708.32;135680;1274;22537;-80
2023/07/16 13:45:53;;;;;;;11.80;10.80;;;;;;;36.11;30.52;98707.20;135766;1274;22541;-81
2023/07/16 13:48:56;;;;;;;6.00;5.50;;;;;;;36.19;30.90;98711.16;135684;1274;22535;-81
2023/07/16 13:51:59;;;;;;;5.20;3.40;;;;;;;36.43;30.22;98706.73;135876;1275;22540;-81
2023/07/16 13:55:03;;;;;;;;;;;;;;;36.35;30.00;98705.52;135859;1274;22544;-81
2023/07/16 13:58:06;;;;;;;4.30;3.10;;;;;;;35.98;30.46;98704.80;135973;1274;25417;-81
2023/07/16 14:01:10;;;;;;;4.20;3.10;;;;;;;36.11;30.95;98706.48;135797;1274;22526;-82
2023/07/16 14:04:13;;;;;;;6.00;3.00;;;;;;;36.45;30.10;98707.76;135861;1274;22531;-81
2023/07/16 14:07:17;;;;;;;7.00;3.40;;;;;;;36.75;29.43;98701.81;135870;1274;22563;-82